»·PEaware :: UAL717 KBUF-KMDW

UAL717 :: KBUF-KMDW

FLIGHT INFORMATION

Flight Status: Arrived
Operator:
United Airlines
More flights by this operator :: More flights under this callsign
Pilot: Ty S. (2873)
Aircraft: BOEING 737-300
(B733)
More flights by this aircraft type
Origin: KBUF Buffalo Niagara Intl
United States
Destination: KMDW Chicago-Midway
United States
More flights between these airports :: More routes between these airports
Route:
File this flight plan on PilotEdge
Remarks:
Altitude:
(Current/Filed)
0ft
Speed:
(Current/Filed)
0kts
Departed: 23-Apr-16 09:37 AM
Arrived: 23-Apr-16 10:55 AM
Distance/Time
Traveled:
406nm/1:17
Distance/Time
To Go:
Arrived

Flight Plot

Page will automatically refresh every two minutes.


Map Options




Map Legend


Flown Route
Filed Route
Departure Airport
Arrival Airport
Navaid (VOR, NDB)
Fix

Horizontal Profiles

Position Reports

Time Latitude Longitude Heading Altitude Ground
Speed
23-Apr-16 09:15 42.934747 -78.732904 160 731ft 0kts
23-Apr-16 09:16 42.934770 -78.732915 160 731ft 0kts
23-Apr-16 09:17 42.935197 -78.733297 91 731ft 0kts
23-Apr-16 09:18 42.935091 -78.733584 41 731ft 0kts
23-Apr-16 09:19 42.935091 -78.733584 41 731ft 0kts
23-Apr-16 09:20 42.936784 -78.732305 37 731ft 11kts
23-Apr-16 09:21 42.938644 -78.729101 121 731ft 11kts
23-Apr-16 09:22 42.936828 -78.725723 127 731ft 12kts
23-Apr-16 09:23 42.934904 -78.722118 124 731ft 11kts
23-Apr-16 09:24 42.934618 -78.721411 91 731ft 1kts
23-Apr-16 09:25 42.935550 -78.720826 303 731ft 0kts
23-Apr-16 09:26 42.935550 -78.720826 303 731ft 0kts
23-Apr-16 09:27 42.935627 -78.720984 303 731ft 15kts
23-Apr-16 09:28 42.954870 -78.756517 307 1714ft 154kts
23-Apr-16 09:29 42.952433 -78.808901 200 3156ft 204kts
23-Apr-16 09:30 42.894775 -78.830160 183 5008ft 236kts
23-Apr-16 09:31 42.823760 -78.848416 198 6513ft 286kts
23-Apr-16 09:32 42.746885 -78.879436 201 9202ft 297kts
23-Apr-16 09:33 42.667556 -78.913977 203 11943ft 304kts
23-Apr-16 09:34 42.586135 -78.950104 204 14532ft 315kts
23-Apr-16 09:35 42.495844 -78.990140 202 15709ft 374kts
23-Apr-16 09:36 42.395746 -79.035199 203 18040ft 388kts
23-Apr-16 09:37 42.291560 -79.079768 203 20187ft 401kts
23-Apr-16 09:38 42.189511 -79.138690 234 21801ft 391kts
23-Apr-16 09:39 42.147775 -79.278411 254 23207ft 399kts
23-Apr-16 09:40 42.111222 -79.416550 255 24997ft 406kts
23-Apr-16 09:41 42.080269 -79.534689 255 26620ft 406kts
23-Apr-16 09:42 42.036534 -79.703262 256 28150ft 418kts
23-Apr-16 09:43 41.998292 -79.849884 255 29757ft 420kts
23-Apr-16 09:44 41.964313 -79.977492 256 30280ft 420kts
23-Apr-16 09:45 41.925695 -80.122981 256 30201ft 412kts
23-Apr-16 09:46 41.886972 -80.266286 255 30188ft 415kts
23-Apr-16 09:47 41.847671 -80.412002 255 30187ft 418kts
23-Apr-16 09:48 41.808090 -80.558151 256 30183ft 421kts
23-Apr-16 09:49 41.768715 -80.704216 257 30195ft 420kts
23-Apr-16 09:50 41.728845 -80.850227 256 30208ft 418kts
23-Apr-16 09:51 41.688684 -80.995595 255 30220ft 419kts
23-Apr-16 09:52 41.647935 -81.141587 255 30234ft 420kts
23-Apr-16 09:53 41.607187 -81.287301 255 30231ft 419kts
23-Apr-16 09:54 41.565740 -81.434759 256 30234ft 420kts
23-Apr-16 09:55 41.524596 -81.580267 255 30234ft 421kts
23-Apr-16 09:56 41.484359 -81.725505 256 30232ft 421kts
23-Apr-16 09:57 41.442478 -81.871081 255 30265ft 421kts
23-Apr-16 09:58 41.400626 -82.016055 255 30250ft 420kts
23-Apr-16 09:59 41.359352 -82.160717 262 30205ft 416kts
23-Apr-16 10:00 41.366327 -82.307396 280 30284ft 403kts
23-Apr-16 10:01 41.374375 -82.454451 280 30212ft 397kts
23-Apr-16 10:02 41.382732 -82.602121 280 30241ft 398kts
23-Apr-16 10:03 41.391164 -82.749274 280 30233ft 404kts
23-Apr-16 10:04 41.399094 -82.898047 279 30229ft 405kts
23-Apr-16 10:05 41.407046 -83.048755 280 30241ft 405kts
23-Apr-16 10:06 41.414849 -83.198631 280 30232ft 404kts
23-Apr-16 10:07 41.422332 -83.348142 280 30228ft 404kts
23-Apr-16 10:08 41.429607 -83.493498 280 30144ft 404kts
23-Apr-16 10:09 41.436507 -83.643952 280 30316ft 408kts
23-Apr-16 10:10 41.444343 -83.792154 279 30221ft 407kts
23-Apr-16 10:11 41.450778 -83.943499 279 30185ft 410kts
23-Apr-16 10:12 41.457299 -84.093338 279 30251ft 409kts
23-Apr-16 10:13 41.463728 -84.244556 279 30127ft 408kts
23-Apr-16 10:14 41.469946 -84.395119 279 30312ft 409kts
23-Apr-16 10:15 41.475980 -84.546838 279 30087ft 405kts
23-Apr-16 10:16 41.480769 -84.671102 278 30329ft 408kts
23-Apr-16 10:17 41.486951 -84.846544 279 30203ft 403kts
23-Apr-16 10:18 41.492816 -84.997882 278 30267ft 413kts
23-Apr-16 10:19 41.497524 -85.124124 279 30217ft 405kts
23-Apr-16 10:20 41.503025 -85.275982 278 30264ft 413kts
23-Apr-16 10:21 41.508401 -85.427175 278 30301ft 406kts
23-Apr-16 10:22 41.513320 -85.571786 277 30072ft 404kts
23-Apr-16 10:23 41.516093 -85.700286 275 29521ft 408kts
23-Apr-16 10:24 41.518964 -85.850356 275 28661ft 408kts
23-Apr-16 10:25 41.521894 -85.997327 275 27255ft 404kts
23-Apr-16 10:26 41.524218 -86.145346 274 24566ft 391kts
23-Apr-16 10:27 41.523357 -86.286210 273 22416ft 369kts
23-Apr-16 10:28 41.522577 -86.421767 273 20345ft 367kts
23-Apr-16 10:29 41.521489 -86.554572 273 18280ft 348kts
23-Apr-16 10:30 41.520531 -86.683130 273 16271ft 348kts
23-Apr-16 10:31 41.519842 -86.811186 271 14102ft 336kts
23-Apr-16 10:32 41.518742 -86.932448 272 12263ft 327kts
23-Apr-16 10:33 41.518034 -87.052919 271 10380ft 320kts
23-Apr-16 10:34 41.516745 -87.163144 274 9998ft 268kts
23-Apr-16 10:35 41.522481 -87.262344 276 9036ft 277kts
23-Apr-16 10:36 41.527656 -87.363458 277 7511ft 266kts
23-Apr-16 10:37 41.532804 -87.459685 276 6147ft 257kts
23-Apr-16 10:38 41.537774 -87.553919 276 4754ft 254kts
23-Apr-16 10:39 41.560930 -87.632842 315 3996ft 219kts
23-Apr-16 10:40 41.599895 -87.687725 315 4017ft 207kts
23-Apr-16 10:41 41.639836 -87.744763 315 4444ft 197kts
23-Apr-16 10:42 41.676373 -87.794298 315 3687ft 186kts
23-Apr-16 10:43 41.716970 -87.805161 359 2747ft 137kts
23-Apr-16 10:44 41.752256 -87.793570 39 1472ft 131kts
23-Apr-16 10:45 41.778370 -87.760300 42 702ft 130kts
23-Apr-16 10:46 41.790338 -87.744811 102 627ft 16kts
23-Apr-16 10:47 41.786858 -87.747753 195 627ft 15kts
23-Apr-16 10:48 41.785305 -87.744765 42 627ft 13kts
23-Apr-16 10:49 41.785657 -87.743346 116 627ft 0kts
23-Apr-16 10:50 41.785657 -87.743346 116 627ft 0kts
23-Apr-16 10:51 41.785657 -87.743346 116 627ft 0kts
23-Apr-16 10:52 41.785657 -87.743346 116 627ft 0kts
23-Apr-16 10:53 41.785657 -87.743346 116 627ft 0kts
23-Apr-16 10:54 41.785657 -87.743346 116 627ft 0kts
23-Apr-16 10:55 41.785657 -87.743346 116 627ft 0kts
23-Apr-16 10:56 41.785657 -87.743346 116 627ft 0kts
23-Apr-16 10:57 41.785657 -87.743346 116 627ft 0kts
23-Apr-16 10:58 41.785657 -87.743346 116 627ft 0kts
23-Apr-16 10:59 41.776647 -87.762458 42 744ft 130kts
23-Apr-16 11:00 41.783382 -87.753983 43 627ft 124kts

Navigation Log

Ident Type
Flight plan parsing failed, navigation log unavailable